createdAt,value
2017-11-19T00:01:56.972Z,4.30
2017-11-19T00:04:24.391Z,4.30
2017-11-19T00:06:51.816Z,4.30
2017-11-19T00:09:19.263Z,4.30
2017-11-19T00:11:46.683Z,4.30
2017-11-19T00:14:14.120Z,4.30
2017-11-19T00:16:42.330Z,4.40
2017-11-19T00:19:09.764Z,4.40
2017-11-19T00:21:37.970Z,4.40
2017-11-19T00:24:06.126Z,4.40
2017-11-19T00:26:33.558Z,4.50
2017-11-19T00:29:03.190Z,4.50
2017-11-19T00:31:30.618Z,4.50
2017-11-19T00:33:58.822Z,4.50
2017-11-19T00:36:26.241Z,4.50
2017-11-19T00:38:54.262Z,4.50
2017-11-19T00:41:21.674Z,4.50
2017-11-19T00:43:50.163Z,4.60
2017-11-19T00:46:21.853Z,4.50
2017-11-19T00:48:49.383Z,4.60
2017-11-19T00:51:17.571Z,4.60
2017-11-19T00:53:45.110Z,4.60
2017-11-19T00:56:13.311Z,4.60
2017-11-19T00:58:40.748Z,4.60
2017-11-19T01:01:09.482Z,4.60
2017-11-19T01:03:36.937Z,4.60
2017-11-19T01:06:04.367Z,4.60
2017-11-19T01:08:31.822Z,4.60
2017-11-19T01:11:01.940Z,4.60
2017-11-19T01:13:30.221Z,4.60
2017-11-19T01:15:57.692Z,4.60
2017-11-19T01:18:25.131Z,4.60
2017-11-19T01:20:52.708Z,4.60
2017-11-19T01:23:20.499Z,4.60
2017-11-19T01:25:47.935Z,4.60
2017-11-19T01:28:15.357Z,4.70
2017-11-19T01:30:43.564Z,4.70
2017-11-19T01:33:11.525Z,4.70
2017-11-19T01:35:38.984Z,4.70
2017-11-19T01:38:06.682Z,4.60
2017-11-19T01:40:34.103Z,4.60
2017-11-19T01:43:01.531Z,4.60
2017-11-19T01:45:29.737Z,4.60
2017-11-19T01:47:57.405Z,4.60
2017-11-19T01:50:24.827Z,4.50
2017-11-19T01:52:53.016Z,4.50
2017-11-19T01:55:20.438Z,4.50
2017-11-19T01:57:47.861Z,4.50
2017-11-19T02:00:15.314Z,4.60
2017-11-19T02:02:42.733Z,4.60
2017-11-19T02:05:10.169Z,4.50
2017-11-19T02:07:37.591Z,4.50
2017-11-19T02:10:05.557Z,4.60
2017-11-19T02:12:32.998Z,4.50
2017-11-19T02:15:00.446Z,4.50
2017-11-19T02:17:28.636Z,4.50
2017-11-19T02:19:56.064Z,4.50
2017-11-19T02:22:24.150Z,4.40
2017-11-19T02:24:51.556Z,4.40
2017-11-19T02:27:18.985Z,4.40
2017-11-19T02:29:46.423Z,4.40
2017-11-19T02:32:13.866Z,4.30
2017-11-19T02:34:41.293Z,4.40
2017-11-19T02:37:08.761Z,4.30
2017-11-19T02:39:36.955Z,4.30
2017-11-19T02:42:04.385Z,4.30
2017-11-19T02:44:31.841Z,4.40
2017-11-19T02:47:00.043Z,4.40
2017-11-19T02:49:27.490Z,4.40
2017-11-19T02:51:55.674Z,4.40
2017-11-19T02:54:23.098Z,4.40
2017-11-19T02:56:50.531Z,4.40
2017-11-19T02:59:17.972Z,4.40
2017-11-19T03:01:45.417Z,4.50
2017-11-19T03:04:12.842Z,4.50
2017-11-19T03:06:41.461Z,4.40
2017-11-19T03:09:10.821Z,4.40
2017-11-19T03:11:38.903Z,4.40
2017-11-19T03:14:07.087Z,4.40
2017-11-19T03:16:34.511Z,4.40
2017-11-19T03:19:01.946Z,4.40
2017-11-19T03:21:29.681Z,4.40
2017-11-19T03:23:57.882Z,4.40
2017-11-19T03:26:25.301Z,4.40
2017-11-19T03:28:52.779Z,4.40
2017-11-19T03:31:20.199Z,4.40
2017-11-19T03:33:48.390Z,4.50
2017-11-19T03:36:15.822Z,4.50
2017-11-19T03:38:44.072Z,4.60
2017-11-19T03:41:11.929Z,4.60
2017-11-19T03:43:39.368Z,4.60
2017-11-19T03:46:07.548Z,4.60
2017-11-19T03:48:34.990Z,4.60
2017-11-19T03:51:02.445Z,4.60
2017-11-19T03:53:31.069Z,4.50
2017-11-19T03:56:00.961Z,4.50
2017-11-19T03:58:29.018Z,4.40
2017-11-19T04:00:57.123Z,4.30
2017-11-19T04:03:26.998Z,4.30
2017-11-19T04:05:55.200Z,4.30
2017-11-19T04:08:23.367Z,4.30
2017-11-19T04:10:50.788Z,4.40
2017-11-19T04:13:18.967Z,4.40
2017-11-19T04:15:46.404Z,4.40
2017-11-19T04:18:14.596Z,4.40
2017-11-19T04:20:42.031Z,4.30
2017-11-19T04:23:10.223Z,4.40
2017-11-19T04:25:37.645Z,4.40
2017-11-19T04:28:05.069Z,4.40
2017-11-19T04:30:32.501Z,4.50
2017-11-19T04:33:00.321Z,4.40
2017-11-19T04:35:27.745Z,4.30
2017-11-19T04:37:55.710Z,4.20
2017-11-19T04:40:23.884Z,4.20
2017-11-19T04:42:51.822Z,4.20
2017-11-19T04:45:19.250Z,4.20
2017-11-19T04:47:46.674Z,4.20
2017-11-19T04:50:14.098Z,4.20
2017-11-19T04:52:42.342Z,4.30
2017-11-19T04:55:09.761Z,4.30
2017-11-19T04:57:37.202Z,4.30
2017-11-19T05:00:04.624Z,4.30
2017-11-19T05:02:32.817Z,4.30
2017-11-19T05:05:00.556Z,4.30
2017-11-19T05:07:28.737Z,4.30
2017-11-19T05:09:57.141Z,4.30
2017-11-19T05:12:24.565Z,4.30
2017-11-19T05:14:51.978Z,4.30
2017-11-19T05:17:19.409Z,4.30
2017-11-19T05:19:47.363Z,4.30
2017-11-19T05:22:15.547Z,4.20
2017-11-19T05:24:42.960Z,4.20
2017-11-19T05:27:10.385Z,4.10
2017-11-19T05:29:37.831Z,4.10
2017-11-19T05:32:05.253Z,4.10
2017-11-19T05:34:33.446Z,4.10
2017-11-19T05:37:01.314Z,4.00
2017-11-19T05:39:28.736Z,4.10
2017-11-19T05:41:56.165Z,4.00
2017-11-19T05:44:24.013Z,3.90
2017-11-19T05:46:51.443Z,3.70
2017-11-19T05:49:26.568Z,3.40
2017-11-19T05:51:56.077Z,3.30
2017-11-19T05:54:24.261Z,3.20
2017-11-19T05:56:51.688Z,3.20
2017-11-19T05:59:19.112Z,3.20
2017-11-19T06:01:46.549Z,3.10
2017-11-19T06:04:13.963Z,3.10
2017-11-19T06:06:41.397Z,3.00
2017-11-19T06:09:08.819Z,3.00
2017-11-19T06:11:36.256Z,3.00
2017-11-19T06:14:04.434Z,3.00
2017-11-19T06:16:33.165Z,3.00
2017-11-19T06:19:00.582Z,3.10
2017-11-19T06:21:28.770Z,3.10
2017-11-19T06:23:56.203Z,3.10
2017-11-19T06:26:24.379Z,3.10
2017-11-19T06:28:51.810Z,3.10
2017-11-19T06:31:19.233Z,3.10
2017-11-19T06:33:47.056Z,3.00
2017-11-19T06:36:15.226Z,3.00
2017-11-19T06:38:43.833Z,3.00
2017-11-19T06:41:11.264Z,3.00
2017-11-19T06:43:39.457Z,2.90
2017-11-19T06:46:06.877Z,2.90
2017-11-19T06:48:34.717Z,2.80
2017-11-19T06:51:02.155Z,2.70
2017-11-19T06:53:29.570Z,2.60
2017-11-19T06:55:57.765Z,2.40
2017-11-19T06:58:25.185Z,2.40
2017-11-19T07:00:52.609Z,2.40
2017-11-19T07:03:20.031Z,2.40
2017-11-19T07:05:47.440Z,2.40
2017-11-19T07:08:14.870Z,2.40
2017-11-19T07:10:42.278Z,2.30
2017-11-19T07:13:10.536Z,2.20
2017-11-19T07:15:40.481Z,2.20
2017-11-19T07:18:10.131Z,2.30
2017-11-19T07:20:38.106Z,2.30
2017-11-19T07:23:05.535Z,2.30
2017-11-19T07:25:40.123Z,2.30
2017-11-19T07:28:07.561Z,2.30
2017-11-19T07:30:35.505Z,2.30
2017-11-19T07:33:02.937Z,2.30
2017-11-19T07:35:30.467Z,2.30
2017-11-19T07:37:58.653Z,2.70
2017-11-19T07:40:26.858Z,2.80
2017-11-19T07:42:54.292Z,2.80
2017-11-19T07:45:22.851Z,3.10
2017-11-19T07:47:51.054Z,3.10
2017-11-19T07:50:21.118Z,3.30
2017-11-19T07:52:54.697Z,3.30
2017-11-19T07:55:22.125Z,3.30
2017-11-19T07:57:50.310Z,3.80
2017-11-19T08:00:17.733Z,3.80
2017-11-19T08:02:45.926Z,5.00
2017-11-19T08:05:14.109Z,5.40
2017-11-19T08:07:42.354Z,5.30
2017-11-19T08:10:11.699Z,5.30
2017-11-19T08:12:39.140Z,5.20
2017-11-19T08:15:07.242Z,4.90
2017-11-19T08:17:34.656Z,4.80
2017-11-19T08:20:02.845Z,5.20
2017-11-19T08:22:30.268Z,5.10
2017-11-19T08:24:57.698Z,5.30
2017-11-19T08:27:25.112Z,5.60
2017-11-19T08:29:52.952Z,6.00
2017-11-19T08:32:20.380Z,6.30
2017-11-19T08:34:47.834Z,6.60
2017-11-19T08:37:16.056Z,6.90
2017-11-19T08:39:45.061Z,7.70
2017-11-19T08:42:12.493Z,7.70
2017-11-19T08:44:40.613Z,7.90
2017-11-19T08:47:08.033Z,7.40
2017-11-19T08:49:36.760Z,6.40
2017-11-19T08:52:04.169Z,6.40
2017-11-19T08:54:32.438Z,5.80
2017-11-19T08:56:59.849Z,5.80
2017-11-19T08:59:27.269Z,5.70
2017-11-19T09:01:55.455Z,5.40
2017-11-19T09:04:22.986Z,5.30
2017-11-19T09:06:50.512Z,5.40
2017-11-19T09:09:17.955Z,5.50
2017-11-19T09:11:45.378Z,6.00
2017-11-19T09:14:13.579Z,6.60
2017-11-19T09:16:41.008Z,6.60
2017-11-19T09:19:09.189Z,7.20
2017-11-19T09:21:36.936Z,7.20
2017-11-19T09:24:05.124Z,7.70
2017-11-19T09:26:32.557Z,7.70
2017-11-19T09:28:59.977Z,7.90
2017-11-19T09:31:27.397Z,7.60
2017-11-19T09:33:55.621Z,7.80
2017-11-19T09:36:23.078Z,8.00
2017-11-19T09:38:50.489Z,8.10
2017-11-19T09:41:17.909Z,8.20
2017-11-19T09:43:45.341Z,8.60
2017-11-19T09:46:12.756Z,8.70
2017-11-19T09:48:40.189Z,8.30
2017-11-19T09:51:10.300Z,7.70
2017-11-19T09:53:40.162Z,7.70
2017-11-19T09:56:08.147Z,7.40
2017-11-19T09:58:35.575Z,7.20
2017-11-19T10:01:03.411Z,6.90
2017-11-19T10:03:30.840Z,6.90
2017-11-19T10:05:58.383Z,6.90
2017-11-19T10:08:25.810Z,6.80
2017-11-19T10:10:53.989Z,7.00
2017-11-19T10:13:21.816Z,7.00
2017-11-19T10:15:50.205Z,7.10
2017-11-19T10:18:17.637Z,7.20
2017-11-19T10:20:45.066Z,7.00
2017-11-19T10:23:15.461Z,6.90
2017-11-19T10:25:43.649Z,6.60
2017-11-19T10:28:11.087Z,6.60
2017-11-19T10:30:39.282Z,6.90
2017-11-19T10:33:06.742Z,7.00
2017-11-19T10:35:34.890Z,9.10
2017-11-19T10:38:03.383Z,9.80
2017-11-19T10:40:33.214Z,10.00
2017-11-19T10:43:00.963Z,10.00
2017-11-19T10:45:28.790Z,9.90
2017-11-19T10:47:56.226Z,10.20
2017-11-19T10:50:23.729Z,10.70
2017-11-19T10:52:51.942Z,9.80
2017-11-19T10:55:19.384Z,9.80
2017-11-19T10:57:46.797Z,9.70
2017-11-19T11:00:14.245Z,10.00
2017-11-19T11:02:41.980Z,9.70
2017-11-19T11:05:09.412Z,9.00
2017-11-19T11:07:36.912Z,8.80
2017-11-19T11:10:04.353Z,8.50
2017-11-19T11:12:31.785Z,8.70
2017-11-19T11:14:59.219Z,8.90
2017-11-19T11:17:26.646Z,9.00
2017-11-19T11:19:54.090Z,9.00
2017-11-19T11:22:21.510Z,8.60
2017-11-19T11:24:48.960Z,8.20
2017-11-19T11:27:17.138Z,9.00
2017-11-19T11:29:44.583Z,9.00
2017-11-19T11:32:12.893Z,9.90
2017-11-19T11:34:40.318Z,9.90
2017-11-19T11:37:09.261Z,10.90
2017-11-19T11:39:36.684Z,10.90
2017-11-19T11:42:04.116Z,10.80
2017-11-19T11:44:32.345Z,10.90
2017-11-19T11:46:59.787Z,10.90
2017-11-19T11:49:27.204Z,11.20
2017-11-19T11:51:55.406Z,10.60
2017-11-19T11:54:28.352Z,10.60
2017-11-19T11:56:55.778Z,9.50
2017-11-19T11:59:23.198Z,9.10
2017-11-19T12:01:50.646Z,9.00
2017-11-19T12:04:18.826Z,8.50
2017-11-19T12:06:46.327Z,8.50
2017-11-19T12:09:13.748Z,8.70
2017-11-19T12:11:43.893Z,9.20
2017-11-19T12:14:11.293Z,9.50
2017-11-19T12:16:39.497Z,9.60
2017-11-19T12:19:06.924Z,9.60
2017-11-19T12:21:34.906Z,9.20
2017-11-19T12:24:03.077Z,8.90
2017-11-19T12:26:31.289Z,8.80
2017-11-19T12:28:58.709Z,8.80
2017-11-19T12:31:26.934Z,8.90
2017-11-19T12:33:54.365Z,8.80
2017-11-19T12:36:22.369Z,9.00
2017-11-19T12:38:49.861Z,9.00
2017-11-19T12:41:17.274Z,9.00
2017-11-19T12:43:44.696Z,9.50
2017-11-19T12:46:12.121Z,9.90
2017-11-19T12:48:39.552Z,10.00
2017-11-19T12:51:08.289Z,9.10
2017-11-19T12:53:36.480Z,8.70
2017-11-19T12:56:03.902Z,8.60
2017-11-19T12:58:31.366Z,8.30
2017-11-19T13:00:59.557Z,8.40
2017-11-19T13:03:26.993Z,8.30
2017-11-19T13:05:54.421Z,8.20
2017-11-19T13:08:22.524Z,8.20
2017-11-19T13:10:50.721Z,8.10
2017-11-19T13:13:18.144Z,8.10
2017-11-19T13:15:45.571Z,8.20
2017-11-19T13:18:13.008Z,8.00
2017-11-19T13:20:40.413Z,8.00
2017-11-19T13:23:07.857Z,8.00
2017-11-19T13:25:35.337Z,8.10
2017-11-19T13:28:02.754Z,8.20
2017-11-19T13:30:30.182Z,8.20
2017-11-19T13:32:58.054Z,8.00
2017-11-19T13:35:25.469Z,7.80
2017-11-19T13:37:52.897Z,7.30
2017-11-19T13:40:20.348Z,7.00
2017-11-19T13:42:47.799Z,6.60
2017-11-19T13:45:15.248Z,6.40
2017-11-19T13:47:42.685Z,6.20
2017-11-19T13:50:10.118Z,6.10
2017-11-19T13:52:38.335Z,5.70
2017-11-19T13:55:05.790Z,5.70
2017-11-19T13:57:33.225Z,5.60
2017-11-19T14:00:00.669Z,5.40
2017-11-19T14:02:28.875Z,5.10
2017-11-19T14:04:56.301Z,5.10
2017-11-19T14:07:24.502Z,4.90
2017-11-19T14:09:51.939Z,4.80
2017-11-19T14:12:20.131Z,4.90
2017-11-19T14:14:47.636Z,4.90
2017-11-19T14:17:15.070Z,5.00
2017-11-19T14:19:42.517Z,5.20
2017-11-19T14:22:09.942Z,5.30
2017-11-19T14:24:38.145Z,5.60
2017-11-19T14:27:05.599Z,5.60
2017-11-19T14:29:33.025Z,5.60
2017-11-19T14:32:01.213Z,5.70
2017-11-19T14:34:28.658Z,5.70
2017-11-19T14:36:56.868Z,5.70
2017-11-19T14:39:24.335Z,5.70
2017-11-19T14:41:51.784Z,5.70
2017-11-19T14:44:19.228Z,5.70
2017-11-19T14:46:46.665Z,5.80
2017-11-19T14:49:14.852Z,5.80
2017-11-19T14:51:42.273Z,5.70
2017-11-19T14:54:09.707Z,5.70
2017-11-19T14:56:37.141Z,5.70
2017-11-19T14:59:04.593Z,5.70
2017-11-19T15:01:32.016Z,5.70
2017-11-19T15:04:00.234Z,5.80
2017-11-19T15:06:27.662Z,5.80
2017-11-19T15:08:55.087Z,5.80
2017-11-19T15:11:22.517Z,5.80
2017-11-19T15:13:49.974Z,5.80
2017-11-19T15:16:17.425Z,5.80
2017-11-19T15:18:44.868Z,5.80
2017-11-19T15:21:12.285Z,5.80
2017-11-19T15:23:40.490Z,5.70
2017-11-19T15:26:07.951Z,5.70
2017-11-19T15:28:35.393Z,5.70
2017-11-19T15:31:02.826Z,5.80
2017-11-19T15:33:31.027Z,5.70
2017-11-19T15:35:58.557Z,5.80
2017-11-19T15:38:26.001Z,5.80
2017-11-19T15:40:53.437Z,5.70
2017-11-19T15:43:20.892Z,5.70
2017-11-19T15:45:48.369Z,5.60
2017-11-19T15:48:16.687Z,5.60
2017-11-19T15:50:45.042Z,5.50
2017-11-19T15:53:13.245Z,5.40
2017-11-19T15:55:40.696Z,5.40
2017-11-19T15:58:08.877Z,5.40
2017-11-19T16:00:36.316Z,5.40
2017-11-19T16:03:04.517Z,5.40
2017-11-19T16:05:32.253Z,5.40
2017-11-19T16:07:59.674Z,5.40
2017-11-19T16:10:27.398Z,5.40
2017-11-19T16:12:55.383Z,5.40
2017-11-19T16:15:23.073Z,5.40
2017-11-19T16:17:50.509Z,5.40
2017-11-19T16:20:19.332Z,5.40
2017-11-19T16:22:46.742Z,5.40
2017-11-19T16:25:14.171Z,5.40
2017-11-19T16:27:42.365Z,5.40
2017-11-19T16:30:09.810Z,5.30
2017-11-19T16:32:39.290Z,5.30
2017-11-19T16:35:06.719Z,5.30
2017-11-19T16:37:34.150Z,5.30
2017-11-19T16:40:01.580Z,5.30
2017-11-19T16:42:29.034Z,5.30
2017-11-19T16:44:57.222Z,5.30
2017-11-19T16:47:24.649Z,5.20
2017-11-19T16:49:53.264Z,5.20
2017-11-19T16:52:21.945Z,5.20
2017-11-19T16:54:49.365Z,5.30
2017-11-19T16:57:16.800Z,5.20
2017-11-19T16:59:44.235Z,5.20
2017-11-19T17:02:13.007Z,5.20
2017-11-19T17:04:40.417Z,5.20
2017-11-19T17:07:08.398Z,5.20
2017-11-19T17:09:35.822Z,5.20
2017-11-19T17:12:03.241Z,5.20
2017-11-19T17:14:30.793Z,5.20
2017-11-19T17:16:58.974Z,5.10
2017-11-19T17:19:26.408Z,5.10
2017-11-19T17:21:54.601Z,5.20
2017-11-19T17:24:22.049Z,5.20
2017-11-19T17:26:50.247Z,5.30
2017-11-19T17:29:18.404Z,5.30
2017-11-19T17:31:48.484Z,5.30
2017-11-19T17:34:15.911Z,5.30
2017-11-19T17:36:48.174Z,5.30
2017-11-19T17:39:15.611Z,5.30
2017-11-19T17:41:43.034Z,5.20
2017-11-19T17:44:10.459Z,5.20
2017-11-19T17:46:38.208Z,5.10
2017-11-19T17:49:05.644Z,5.10
2017-11-19T17:51:33.064Z,5.10
2017-11-19T17:54:01.033Z,5.00
2017-11-19T17:56:28.471Z,5.00
2017-11-19T17:58:55.928Z,5.00
2017-11-19T18:01:23.357Z,4.90
2017-11-19T18:03:50.786Z,4.90
2017-11-19T18:06:18.976Z,4.90
2017-11-19T18:08:46.430Z,4.90
2017-11-19T18:11:14.135Z,4.90
2017-11-19T18:13:41.542Z,4.90
2017-11-19T18:16:09.740Z,4.90
2017-11-19T18:18:37.167Z,4.90
2017-11-19T18:21:05.360Z,5.00
2017-11-19T18:23:32.773Z,5.00
2017-11-19T18:26:00.201Z,5.00
2017-11-19T18:28:28.036Z,5.00
2017-11-19T18:30:55.469Z,5.00
2017-11-19T18:33:22.890Z,4.90
2017-11-19T18:35:50.879Z,4.70
2017-11-19T18:38:18.301Z,4.70
2017-11-19T18:40:46.273Z,4.60
2017-11-19T18:43:13.714Z,4.60
2017-11-19T18:45:46.990Z,4.50
2017-11-19T18:48:14.421Z,4.60
2017-11-19T18:50:41.869Z,4.60
2017-11-19T18:53:10.002Z,4.60
2017-11-19T18:55:40.793Z,4.60
2017-11-19T18:58:08.980Z,4.70
2017-11-19T19:00:36.410Z,4.60
2017-11-19T19:03:03.833Z,4.70
2017-11-19T19:05:31.813Z,4.70
2017-11-19T19:07:59.238Z,4.60
2017-11-19T19:10:26.680Z,4.60
2017-11-19T19:12:54.113Z,4.50
2017-11-19T19:15:21.545Z,4.50
2017-11-19T19:17:49.952Z,4.40
2017-11-19T19:20:19.376Z,4.40
2017-11-19T19:22:47.824Z,4.40
2017-11-19T19:25:15.237Z,4.40
2017-11-19T19:27:42.674Z,4.30
2017-11-19T19:30:10.093Z,4.30
2017-11-19T19:32:37.521Z,4.20
2017-11-19T19:35:05.557Z,4.20
2017-11-19T19:37:35.662Z,4.30
2017-11-19T19:40:03.878Z,4.30
2017-11-19T19:42:31.883Z,4.30
2017-11-19T19:44:59.851Z,4.20
2017-11-19T19:47:27.280Z,4.20
2017-11-19T19:49:54.696Z,4.10
2017-11-19T19:52:22.126Z,4.10
2017-11-19T19:54:49.864Z,4.00
2017-11-19T19:57:17.863Z,4.00
2017-11-19T19:59:45.287Z,4.00
2017-11-19T20:02:12.709Z,4.00
2017-11-19T20:04:40.139Z,4.00
2017-11-19T20:07:08.367Z,3.90
2017-11-19T20:09:36.013Z,3.90
2017-11-19T20:12:03.507Z,3.90
2017-11-19T20:14:31.209Z,3.80
2017-11-19T20:16:59.401Z,3.80
2017-11-19T20:19:27.638Z,3.70
2017-11-19T20:21:55.077Z,3.70
2017-11-19T20:24:22.504Z,3.60
2017-11-19T20:26:49.956Z,3.60
2017-11-19T20:29:19.302Z,3.50
2017-11-19T20:31:46.996Z,3.50
2017-11-19T20:34:14.421Z,3.40
2017-11-19T20:36:42.282Z,3.40
2017-11-19T20:39:09.970Z,3.30
2017-11-19T20:41:37.416Z,3.30
2017-11-19T20:44:05.269Z,3.30
2017-11-19T20:46:32.702Z,3.30
2017-11-19T20:49:00.146Z,3.30
2017-11-19T20:51:27.554Z,3.30
2017-11-19T20:53:55.008Z,3.30
2017-11-19T20:56:23.169Z,3.30
2017-11-19T20:58:51.177Z,3.30
2017-11-19T21:01:19.140Z,3.40
2017-11-19T21:03:47.346Z,3.30
2017-11-19T21:06:14.777Z,3.30
2017-11-19T21:08:42.977Z,3.30
2017-11-19T21:11:10.394Z,3.30
2017-11-19T21:13:39.027Z,3.40
2017-11-19T21:16:06.458Z,3.40
2017-11-19T21:18:34.812Z,3.30
2017-11-19T21:21:03.008Z,3.20
2017-11-19T21:23:31.693Z,3.10
2017-11-19T21:25:59.900Z,3.20
2017-11-19T21:28:28.456Z,3.20
2017-11-19T21:30:55.879Z,3.20
2017-11-19T21:33:23.311Z,3.40
2017-11-19T21:35:50.747Z,3.50
2017-11-19T21:38:18.813Z,3.60
2017-11-19T21:40:46.240Z,3.70
2017-11-19T21:43:14.847Z,3.70
2017-11-19T21:45:42.309Z,3.60
2017-11-19T21:48:11.271Z,3.60
2017-11-19T21:50:40.206Z,3.20
2017-11-19T21:53:07.620Z,3.20
2017-11-19T21:55:35.833Z,2.90
2017-11-19T21:58:03.263Z,2.90
2017-11-19T22:00:30.711Z,2.80
2017-11-19T22:02:58.889Z,2.70
2017-11-19T22:05:27.101Z,2.70
2017-11-19T22:07:55.124Z,2.70
2017-11-19T22:10:23.681Z,2.70
2017-11-19T22:12:51.107Z,2.70
2017-11-19T22:15:18.532Z,2.70
2017-11-19T22:17:45.960Z,2.80
2017-11-19T22:20:13.389Z,2.80
2017-11-19T22:22:40.808Z,2.70
2017-11-19T22:25:08.823Z,2.60
2017-11-19T22:27:36.642Z,2.70
2017-11-19T22:30:04.078Z,2.70
2017-11-19T22:32:32.261Z,2.80
2017-11-19T22:35:01.018Z,2.90
2017-11-19T22:37:29.952Z,2.90
2017-11-19T22:39:57.472Z,2.90
2017-11-19T22:42:24.910Z,3.00
2017-11-19T22:44:52.346Z,3.00
2017-11-19T22:47:19.784Z,3.00
2017-11-19T22:49:47.206Z,3.20
2017-11-19T22:52:14.657Z,3.30
2017-11-19T22:54:42.133Z,3.30
2017-11-19T22:57:10.328Z,3.50
2017-11-19T22:59:37.795Z,3.50
2017-11-19T23:02:07.821Z,3.60
2017-11-19T23:04:35.260Z,3.60
2017-11-19T23:07:02.688Z,3.60
2017-11-19T23:09:30.452Z,3.70
2017-11-19T23:11:57.885Z,3.70
2017-11-19T23:14:25.864Z,3.70
2017-11-19T23:16:53.649Z,3.70
2017-11-19T23:19:21.865Z,3.50
2017-11-19T23:21:49.833Z,3.60
2017-11-19T23:24:17.263Z,3.50
2017-11-19T23:26:45.463Z,3.40
2017-11-19T23:29:12.919Z,3.40
2017-11-19T23:31:40.380Z,3.40
2017-11-19T23:34:07.804Z,3.30
2017-11-19T23:36:36.010Z,3.30
2017-11-19T23:39:03.437Z,3.30
2017-11-19T23:41:31.644Z,3.10
2017-11-19T23:43:59.061Z,3.10
2017-11-19T23:46:27.262Z,3.10
2017-11-19T23:48:54.691Z,3.00
2017-11-19T23:51:22.907Z,3.00
2017-11-19T23:53:50.320Z,3.00
2017-11-19T23:56:18.517Z,2.90
2017-11-19T23:58:45.946Z,2.90
